Time;durP1;ratioP1;P1;durP2;ratioP2;P2;SDS_P1;SDS_P2;PMS_P1;PMS_P2;Temp;Humidity;BMP_temperature;BMP_pressure;BME280_temperature;BME280_humidity;BME280_pressure;Samples;Min_cycle;Max_cycle;Signal;HPM_P1;HPM_P2
2021/07/17 00:00:29;;;;;;;18.67;11.48;;;18.10;99.90;;;;;;1924035;74;21136;-73
2021/07/17 00:02:56;;;;;;;14.23;10.08;;;18.00;99.90;;;;;;1924006;74;21066;-73
2021/07/17 00:05:22;;;;;;;20.10;12.23;;;17.90;99.90;;;;;;1923828;74;21144;-72
2021/07/17 00:07:48;;;;;;;22.15;11.88;;;17.90;99.90;;;;;;1924020;74;21067;-71
2021/07/17 00:10:14;;;;;;;17.37;11.80;;;18.00;99.90;;;;;;1924097;74;21136;-71
2021/07/17 00:12:40;;;;;;;20.23;11.65;;;17.90;99.90;;;;;;1923880;74;21066;-71
2021/07/17 00:15:06;;;;;;;15.18;10.72;;;17.90;99.90;;;;;;1923937;74;21181;-71
2021/07/17 00:17:32;;;;;;;14.83;10.70;;;17.80;99.90;;;;;;1924000;74;21067;-72
2021/07/17 00:19:58;;;;;;;13.90;10.28;;;17.90;99.90;;;;;;1924025;74;21130;-74
2021/07/17 00:22:25;;;;;;;16.48;11.88;;;17.90;99.90;;;;;;1923936;74;21099;-72
2021/07/17 00:24:51;;;;;;;37.67;12.47;;;17.80;99.90;;;;;;1924045;74;21084;-72
2021/07/17 00:27:17;;;;;;;16.55;11.57;;;17.80;99.90;;;;;;1923869;74;21132;-71
2021/07/17 00:29:45;;;;;;;22.13;11.20;;;17.90;99.90;;;;;;1924009;74;21106;-72
2021/07/17 00:32:11;;;;;;;18.17;12.00;;;17.90;99.90;;;;;;1923817;74;21173;-72
2021/07/17 00:34:37;;;;;;;22.52;12.73;;;18.00;99.90;;;;;;1923991;74;21080;-72
2021/07/17 00:37:03;;;;;;;18.30;12.53;;;18.00;99.90;;;;;;1924066;74;21109;-72
2021/07/17 00:39:29;;;;;;;21.57;12.00;;;17.90;99.90;;;;;;1924012;74;21542;-71
2021/07/17 00:41:55;;;;;;;23.85;12.73;;;17.90;99.90;;;;;;1923905;74;21488;-72
2021/07/17 00:44:21;;;;;;;16.62;12.03;;;17.90;99.90;;;;;;1923892;74;21511;-72
2021/07/17 00:46:47;;;;;;;17.25;11.25;;;18.00;99.90;;;;;;1923911;74;21585;-72
2021/07/17 00:49:14;;;;;;;16.23;11.48;;;17.90;99.90;;;;;;1924098;74;21564;-72
2021/07/17 00:51:40;;;;;;;20.68;11.95;;;18.00;99.90;;;;;;1923994;74;21528;-72
2021/07/17 00:54:06;;;;;;;20.17;12.68;;;18.00;99.90;;;;;;1923890;74;21567;-72
2021/07/17 00:56:35;;;;;;;16.85;12.10;;;17.90;99.90;;;;;;1924068;74;21531;-72
2021/07/17 00:59:01;;;;;;;19.25;12.60;;;18.00;99.90;;;;;;1923974;74;21039;-72
2021/07/17 01:01:34;;;;;;;20.70;13.10;;;17.90;99.90;;;;;;1924049;74;21116;-72
2021/07/17 01:03:55;;;;;;;17.42;12.88;;;18.00;99.90;;;;;;1920338;74;21084;-72
2021/07/17 01:06:21;;;;;;;20.77;13.32;;;18.00;99.90;;;;;;1923978;74;21088;-73
2021/07/17 01:08:47;;;;;;;19.32;12.50;;;18.00;99.90;;;;;;1923944;74;21176;-73
2021/07/17 01:11:13;;;;;;;21.80;13.15;;;17.90;99.90;;;;;;1923702;74;21199;-72
2021/07/17 01:13:39;;;;;;;19.50;13.15;;;17.90;99.90;;;;;;1923583;74;21063;-73
2021/07/17 01:16:06;;;;;;;18.52;12.85;;;18.00;99.90;;;;;;1923742;74;21062;-73
2021/07/17 01:18:32;;;;;;;21.68;13.22;;;18.00;99.90;;;;;;1923809;74;21202;-73
2021/07/17 01:20:58;;;;;;;21.87;12.60;;;18.00;99.90;;;;;;1923833;74;21174;-72
2021/07/17 01:23:24;;;;;;;20.48;12.78;;;18.00;99.90;;;;;;1923745;74;21063;-73
2021/07/17 01:25:50;;;;;;;19.65;11.90;;;18.00;99.90;;;;;;1923582;74;21068;-73
2021/07/17 01:28:17;;;;;;;18.00;13.15;;;18.00;99.90;;;;;;1923689;74;21439;-74
2021/07/17 01:30:48;;;;;;;21.25;12.93;;;18.00;99.90;;;;;;1923551;74;21129;-74
2021/07/17 01:33:14;;;;;;;17.27;12.53;;;17.90;99.90;;;;;;1922410;74;21099;-72
2021/07/17 01:35:39;;;;;;;26.37;13.72;;;17.90;99.90;;;;;;1922787;74;21161;-73
2021/07/17 01:38:06;;;;;;;20.50;12.35;;;17.90;99.90;;;;;;1923543;74;21044;-73
2021/07/17 01:40:34;;;;;;;21.05;13.75;;;17.90;99.90;;;;;;1923582;74;21294;-73
2021/07/17 01:43:02;;;;;;;17.37;12.30;;;17.90;99.90;;;;;;1923577;74;21103;-73
2021/07/17 01:45:28;;;;;;;20.82;12.43;;;17.90;99.90;;;;;;1923591;74;21275;-73
2021/07/17 01:47:55;;;;;;;19.90;13.13;;;18.00;99.90;;;;;;1923566;74;21447;-72
2021/07/17 01:50:21;;;;;;;20.45;12.20;;;17.90;99.90;;;;;;1923543;74;21188;-73
2021/07/17 01:52:47;;;;;;;23.83;13.00;;;18.00;99.90;;;;;;1923627;74;21067;-73
2021/07/17 01:55:14;;;;;;;18.50;11.90;;;17.90;99.90;;;;;;1923456;73;21123;-73
2021/07/17 01:57:40;;;;;;;21.05;11.93;;;17.90;99.90;;;;;;1923262;74;21066;-73
2021/07/17 02:00:07;;;;;;;19.70;11.63;;;17.90;99.90;;;;;;1921585;74;21070;-73
2021/07/17 02:02:33;;;;;;;26.87;12.85;;;17.90;99.90;;;;;;1923589;74;21198;-72
2021/07/17 02:04:59;;;;;;;21.20;12.90;;;17.90;99.90;;;;;;1923507;73;21070;-72
2021/07/17 02:07:25;;;;;;;19.77;12.13;;;17.90;99.90;;;;;;1923647;74;21072;-72
2021/07/17 02:09:51;;;;;;;21.55;12.40;;;17.80;99.90;;;;;;1923745;73;21121;-72
2021/07/17 02:12:17;;;;;;;17.45;12.58;;;17.90;99.90;;;;;;1923684;74;21070;-73
2021/07/17 02:14:45;;;;;;;20.27;11.93;;;17.80;99.90;;;;;;1923723;74;21130;-72
2021/07/17 02:17:11;;;;;;;21.40;12.45;;;17.80;99.90;;;;;;1923639;74;21129;-73
2021/07/17 02:19:37;;;;;;;20.65;12.55;;;17.80;99.90;;;;;;1923678;74;21196;-72
2021/07/17 02:22:04;;;;;;;22.73;12.85;;;17.70;99.90;;;;;;1923629;74;21055;-73
2021/07/17 02:24:30;;;;;;;18.15;12.58;;;17.80;99.90;;;;;;1923577;74;21083;-73
2021/07/17 02:26:56;;;;;;;20.45;11.93;;;17.80;99.90;;;;;;1923587;74;21105;-72
2021/07/17 02:29:22;;;;;;;23.73;12.78;;;17.80;99.90;;;;;;1923945;74;21091;-72
2021/07/17 02:31:48;;;;;;;21.20;12.88;;;17.80;99.90;;;;;;1923710;74;21066;-72
2021/07/17 02:34:14;;;;;;;20.37;12.85;;;17.80;99.90;;;;;;1923902;74;21071;-72
2021/07/17 02:36:40;;;;;;;21.02;12.40;;;17.80;99.90;;;;;;1924916;73;21121;-71
2021/07/17 02:39:06;;;;;;;20.68;13.05;;;17.80;99.90;;;;;;1927309;74;21078;-71
2021/07/17 02:41:33;;;;;;;22.73;12.65;;;17.80;99.90;;;;;;1924906;74;21013;-71
2021/07/17 02:43:59;;;;;;;23.20;13.18;;;17.70;99.90;;;;;;1923686;74;21030;-72
2021/07/17 02:46:25;;;;;;;22.93;12.33;;;17.70;99.90;;;;;;1923885;74;21099;-71
2021/07/17 02:48:51;;;;;;;18.50;12.60;;;17.70;99.90;;;;;;1923835;74;21057;-71
2021/07/17 02:51:17;;;;;;;27.93;11.78;;;17.70;99.90;;;;;;1923943;74;21059;-72
2021/07/17 02:53:43;;;;;;;16.95;12.68;;;17.70;99.90;;;;;;1923698;74;21115;-72
2021/07/17 02:56:09;;;;;;;19.80;12.80;;;17.70;99.90;;;;;;1923883;74;21131;-72
2021/07/17 02:58:35;;;;;;;26.02;12.13;;;17.60;99.90;;;;;;1923830;74;21136;-72
2021/07/17 03:01:02;;;;;;;19.92;11.83;;;17.70;99.90;;;;;;1923708;74;21279;-71
2021/07/17 03:03:28;;;;;;;20.62;12.25;;;17.70;99.90;;;;;;1923642;74;21074;-71
2021/07/17 03:05:54;;;;;;;19.82;12.58;;;17.70;99.90;;;;;;1923524;74;21062;-71
2021/07/17 03:08:22;;;;;;;18.52;12.82;;;17.70;99.90;;;;;;1923499;74;21132;-71
2021/07/17 03:10:48;;;;;;;20.65;11.85;;;17.70;99.90;;;;;;1923472;74;21099;-71
2021/07/17 03:13:14;;;;;;;18.87;12.35;;;17.70;99.90;;;;;;1923488;74;21169;-72
2021/07/17 03:15:41;;;;;;;21.50;12.15;;;17.60;99.90;;;;;;1923620;73;21070;-71
2021/07/17 03:18:07;;;;;;;19.32;11.93;;;17.60;99.90;;;;;;1923591;74;21534;-72
2021/07/17 03:20:33;;;;;;;19.70;13.05;;;17.60;99.90;;;;;;1923871;74;21637;-70
2021/07/17 03:22:59;;;;;;;20.02;12.58;;;17.70;99.90;;;;;;1923741;74;21443;-72
2021/07/17 03:25:25;;;;;;;22.35;12.25;;;17.60;99.90;;;;;;1923796;74;21576;-72
2021/07/17 03:27:52;;;;;;;23.15;13.08;;;17.70;99.90;;;;;;1923813;74;21447;-72
2021/07/17 03:30:18;;;;;;;27.10;13.68;;;17.60;99.90;;;;;;1923716;74;21527;-72
2021/07/17 03:32:44;;;;;;;21.27;13.22;;;17.60;99.90;;;;;;1923565;74;21482;-71
2021/07/17 03:35:10;;;;;;;27.52;13.62;;;17.60;99.90;;;;;;1923784;74;21506;-72
2021/07/17 03:37:36;;;;;;;16.60;12.20;;;17.60;99.90;;;;;;1923704;73;21192;-71
2021/07/17 03:40:02;;;;;;;22.30;12.85;;;17.50;99.90;;;;;;1923580;74;21572;-71
2021/07/17 03:42:28;;;;;;;21.12;12.82;;;17.50;99.90;;;;;;1923715;74;21518;-72
2021/07/17 03:44:55;;;;;;;23.62;14.25;;;17.40;99.90;;;;;;1923747;74;21598;-72
2021/07/17 03:47:21;;;;;;;19.90;13.28;;;17.40;99.90;;;;;;1923598;74;21078;-71
2021/07/17 03:49:48;;;;;;;20.45;12.60;;;17.40;99.90;;;;;;1923718;74;21031;-71
2021/07/17 03:52:14;;;;;;;25.20;13.25;;;17.40;99.90;;;;;;1923567;74;21074;-72
2021/07/17 03:54:41;;;;;;;25.75;14.00;;;17.50;99.90;;;;;;1923859;74;21066;-72
2021/07/17 03:57:07;;;;;;;18.45;12.60;;;17.40;99.90;;;;;;1923747;74;21219;-71
2021/07/17 03:59:33;;;;;;;25.65;12.98;;;17.40;99.90;;;;;;1923662;74;21039;-72
2021/07/17 04:01:59;;;;;;;23.73;12.40;;;17.50;99.90;;;;;;1923735;73;21043;-73
2021/07/17 04:04:25;;;;;;;24.80;12.23;;;17.60;99.90;;;;;;1923752;73;21136;-71
2021/07/17 04:06:52;;;;;;;17.90;12.15;;;17.50;99.90;;;;;;1923766;74;21070;-71
2021/07/17 04:09:18;;;;;;;16.45;11.83;;;17.50;99.90;;;;;;1923693;74;21062;-71
2021/07/17 04:11:44;;;;;;;22.93;11.93;;;17.60;99.90;;;;;;1923728;74;21110;-71
2021/07/17 04:14:10;;;;;;;22.75;12.93;;;17.60;99.90;;;;;;1923751;74;21062;-72
2021/07/17 04:16:36;;;;;;;20.12;12.20;;;17.50;99.90;;;;;;1923732;73;21151;-71
2021/07/17 04:19:02;;;;;;;17.23;11.30;;;17.50;99.90;;;;;;1923682;74;21059;-71
2021/07/17 04:21:28;;;;;;;20.48;12.18;;;17.60;99.90;;;;;;1923690;74;21148;-71
2021/07/17 04:23:55;;;;;;;17.35;11.30;;;17.60;99.90;;;;;;1923719;74;21132;-72
2021/07/17 04:26:21;;;;;;;23.90;12.03;;;17.60;99.90;;;;;;1923720;74;21159;-71
2021/07/17 04:28:47;;;;;;;21.52;10.88;;;17.60;99.90;;;;;;1923650;74;21066;-71
2021/07/17 04:31:13;;;;;;;16.40;11.00;;;17.60;99.90;;;;;;1923670;73;21070;-72
2021/07/17 04:33:39;;;;;;;19.25;12.18;;;17.50;99.90;;;;;;1923679;74;21046;-71
2021/07/17 04:36:05;;;;;;;20.75;11.90;;;17.50;99.90;;;;;;1922669;73;21144;-72
2021/07/17 04:38:31;;;;;;;19.55;11.05;;;17.60;99.90;;;;;;1923707;74;21075;-72
2021/07/17 04:40:57;;;;;;;22.25;12.65;;;17.50;99.90;;;;;;1923783;73;21162;-71
2021/07/17 04:43:24;;;;;;;18.95;11.33;;;17.50;99.90;;;;;;1923780;74;21117;-73
2021/07/17 04:45:50;;;;;;;17.98;12.33;;;17.50;99.90;;;;;;1923743;74;21495;-72
2021/07/17 04:48:16;;;;;;;15.23;11.25;;;17.50;99.90;;;;;;1922462;74;21440;-72
2021/07/17 04:50:42;;;;;;;15.83;11.55;;;17.50;99.90;;;;;;1919343;74;21510;-71
2021/07/17 04:53:08;;;;;;;15.93;11.93;;;17.50;99.90;;;;;;1923695;74;21477;-73
2021/07/17 04:55:34;;;;;;;22.20;12.40;;;17.50;99.90;;;;;;1923647;74;21543;-72
2021/07/17 04:58:00;;;;;;;16.40;11.80;;;17.50;99.90;;;;;;1923582;74;21511;-72
2021/07/17 05:00:27;;;;;;;16.80;12.03;;;17.60;99.90;;;;;;1923607;74;21486;-72
2021/07/17 05:02:53;;;;;;;16.65;11.45;;;17.60;99.90;;;;;;1923863;74;21564;-72
2021/07/17 05:05:19;;;;;;;19.15;12.65;;;17.50;99.90;;;;;;1923639;74;21136;-72
2021/07/17 05:07:45;;;;;;;25.70;12.58;;;17.40;99.90;;;;;;1923461;74;21066;-72
2021/07/17 05:10:11;;;;;;;16.67;12.05;;;17.50;99.90;;;;;;1923691;74;21157;-72
2021/07/17 05:12:37;;;;;;;18.60;12.20;;;17.50;99.90;;;;;;1923479;74;21044;-72
2021/07/17 05:15:03;;;;;;;26.05;13.20;;;17.50;99.90;;;;;;1923510;74;21117;-71
2021/07/17 05:17:30;;;;;;;21.73;12.75;;;17.50;99.90;;;;;;1923733;74;21176;-71
2021/07/17 05:19:56;;;;;;;20.50;11.90;;;17.50;99.90;;;;;;1923720;74;21111;-72
2021/07/17 05:22:22;;;;;;;30.55;12.37;;;17.60;99.90;;;;;;1923624;74;21164;-73
2021/07/17 05:24:48;;;;;;;17.07;11.85;;;17.60;99.90;;;;;;1923615;74;21196;-73
2021/07/17 05:27:14;;;;;;;23.47;12.60;;;17.60;99.90;;;;;;1923639;74;21106;-72
2021/07/17 05:29:40;;;;;;;19.35;12.13;;;17.70;99.90;;;;;;1923714;74;21091;-70
2021/07/17 05:32:06;;;;;;;18.70;11.45;;;17.70;99.90;;;;;;1923616;74;21170;-72
2021/07/17 05:34:32;;;;;;;25.65;12.20;;;17.70;99.90;;;;;;1923599;74;21547;-72
2021/07/17 05:36:59;;;;;;;20.30;11.50;;;17.70;99.90;;;;;;1923641;74;21146;-72
2021/07/17 05:39:25;;;;;;;20.85;11.22;;;17.80;99.90;;;;;;1923666;73;21115;-72
2021/07/17 05:41:51;;;;;;;21.35;12.00;;;17.80;99.90;;;;;;1923645;74;21095;-71
2021/07/17 05:44:17;;;;;;;15.95;11.55;;;17.80;99.90;;;;;;1924020;74;21110;-73
2021/07/17 05:46:43;;;;;;;19.82;12.18;;;17.90;99.90;;;;;;1924151;74;21067;-72
2021/07/17 05:49:09;;;;;;;23.80;11.65;;;17.80;99.90;;;;;;1923961;74;21095;-72
2021/07/17 05:51:35;;;;;;;18.90;12.03;;;17.90;99.90;;;;;;1923994;74;21068;-72
2021/07/17 05:54:01;;;;;;;21.40;12.33;;;17.80;99.90;;;;;;1923983;73;21078;-72
2021/07/17 05:56:28;;;;;;;22.35;12.58;;;17.90;99.90;;;;;;1924081;74;21572;-73
2021/07/17 05:58:54;;;;;;;22.50;12.00;;;17.90;99.90;;;;;;1923953;74;21494;-72
2021/07/17 06:01:20;;;;;;;23.25;12.65;;;18.00;99.90;;;;;;1923884;73;21462;-73
2021/07/17 06:03:47;;;;;;;20.08;12.00;;;18.00;99.90;;;;;;1924088;74;21177;-72
2021/07/17 06:06:13;;;;;;;20.00;12.53;;;18.10;99.90;;;;;;1924102;74;21107;-72
2021/07/17 06:08:39;;;;;;;18.30;11.00;;;18.10;99.90;;;;;;1924107;74;21169;-72
2021/07/17 06:11:05;;;;;;;16.42;10.93;;;18.10;99.90;;;;;;1924084;74;21173;-72
2021/07/17 06:13:31;;;;;;;20.62;11.25;;;18.10;99.90;;;;;;1924063;74;21047;-72
2021/07/17 06:15:57;;;;;;;16.80;11.00;;;18.10;99.90;;;;;;1924009;73;21184;-72
2021/07/17 06:18:23;;;;;;;18.98;10.48;;;18.10;99.90;;;;;;1924085;74;21099;-72
2021/07/17 06:20:49;;;;;;;16.95;11.55;;;18.10;99.90;;;;;;1924062;74;21079;-73
2021/07/17 06:23:16;;;;;;;16.85;12.18;;;18.10;99.90;;;;;;1924140;73;21087;-73
2021/07/17 06:25:42;;;;;;;18.23;11.90;;;18.10;99.90;;;;;;1924075;74;21095;-72
2021/07/17 06:28:08;;;;;;;21.30;10.68;;;18.10;99.90;;;;;;1924124;74;21096;-72
2021/07/17 06:30:34;;;;;;;26.42;11.73;;;18.20;99.90;;;;;;1924086;74;21099;-73
2021/07/17 06:33:00;;;;;;;17.40;10.82;;;18.20;99.90;;;;;;1924007;74;21087;-71
2021/07/17 06:35:26;;;;;;;19.57;11.33;;;18.30;99.90;;;;;;1924061;74;21088;-72
2021/07/17 06:37:52;;;;;;;23.35;11.90;;;18.30;99.90;;;;;;1924088;74;21165;-72
2021/07/17 06:40:18;;;;;;;21.35;11.68;;;18.40;99.90;;;;;;1924082;74;21169;-75
2021/07/17 06:42:45;;;;;;;15.05;10.03;;;18.50;99.90;;;;;;1924070;74;21129;-75
2021/07/17 06:45:11;;;;;;;20.43;11.00;;;18.50;99.90;;;;;;1924106;74;21091;-75
2021/07/17 06:47:37;;;;;;;15.48;10.13;;;18.60;99.90;;;;;;1924139;74;21096;-75
2021/07/17 06:50:03;;;;;;;17.32;9.25;;;18.60;99.90;;;;;;1923917;73;21051;-76
2021/07/17 06:52:30;;;;;;;19.77;9.63;;;18.60;99.90;;;;;;1924113;74;21067;-77
2021/07/17 06:54:56;;;;;;;15.85;10.58;;;18.60;99.90;;;;;;1920418;74;21051;-77
2021/07/17 06:57:23;;;;;;;20.65;9.98;;;18.60;99.90;;;;;;1924253;73;21103;-76
2021/07/17 06:59:49;;;;;;;17.23;9.83;;;18.60;99.90;;;;;;1924216;74;21095;-75
2021/07/17 07:02:15;;;;;;;13.80;9.80;;;18.80;99.90;;;;;;1924419;74;21150;-75
2021/07/17 07:04:41;;;;;;;18.98;9.78;;;18.90;99.90;;;;;;1923438;74;21039;-74
2021/07/17 07:07:07;;;;;;;19.95;9.40;;;19.00;99.90;;;;;;1924578;74;21109;-74
2021/07/17 07:09:33;;;;;;;15.60;10.23;;;19.00;99.90;;;;;;1924946;73;21177;-74
2021/07/17 07:11:59;;;;;;;18.27;10.43;;;18.90;99.90;;;;;;1926854;74;21044;-75
2021/07/17 07:14:25;;;;;;;17.20;10.53;;;18.80;99.90;;;;;;1926477;74;21122;-75
2021/07/17 07:16:52;;;;;;;11.63;9.38;;;18.90;99.90;;;;;;1924319;73;21107;-76
2021/07/17 07:19:18;;;;;;;12.10;9.55;;;18.70;99.90;;;;;;1924021;74;21088;-76
2021/07/17 07:21:44;;;;;;;16.95;10.03;;;18.70;99.90;;;;;;1924294;74;21111;-75
2021/07/17 07:24:10;;;;;;;21.68;10.75;;;18.80;99.90;;;;;;1924094;73;21079;-76
2021/07/17 07:26:36;;;;;;;15.18;9.85;;;18.80;99.90;;;;;;1922584;74;21108;-76
2021/07/17 07:29:03;;;;;;;19.10;10.30;;;18.70;99.90;;;;;;1921544;74;21079;-76
2021/07/17 07:31:29;;;;;;;16.55;10.58;;;18.80;99.90;;;;;;1924086;74;21080;-75
2021/07/17 07:33:55;;;;;;;16.80;10.05;;;18.70;99.90;;;;;;1924346;74;21110;-75
2021/07/17 07:36:22;;;;;;;18.42;10.60;;;18.80;99.90;;;;;;1922568;73;21043;-76
2021/07/17 07:38:49;;;;;;;18.05;11.12;;;18.70;99.90;;;;;;1924152;74;21193;-76
2021/07/17 07:41:15;;;;;;;19.20;10.82;;;18.80;99.90;;;;;;1924303;73;21133;-77
2021/07/17 07:43:45;;;;;;;15.90;10.72;;;18.80;99.90;;;;;;1924210;74;21146;-78
2021/07/17 07:46:10;;;;;;;20.45;10.78;;;18.90;99.90;;;;;;1924007;74;21169;-78
2021/07/17 07:48:36;;;;;;;15.15;10.78;;;18.90;99.90;;;;;;1924066;74;21174;-77
2021/07/17 07:51:03;;;;;;;12.73;10.30;;;19.00;99.90;;;;;;1924071;73;21099;-83
2021/07/17 07:53:31;;;;;;;19.55;10.93;;;18.90;99.90;;;;;;1924389;74;21074;-84
2021/07/17 07:55:56;;;;;;;22.02;11.15;;;18.90;99.90;;;;;;1924005;74;21091;-80
2021/07/17 07:58:23;;;;;;;18.05;10.48;;;18.80;99.90;;;;;;1924192;74;21137;-79
2021/07/17 08:00:49;;;;;;;15.88;10.20;;;18.90;99.90;;;;;;1923963;74;21140;-82
2021/07/17 08:03:15;;;;;;;17.67;9.85;;;18.80;99.90;;;;;;1924098;74;21191;-82
2021/07/17 08:05:41;;;;;;;17.45;10.08;;;18.80;99.90;;;;;;1923933;74;21067;-79
2021/07/17 08:08:07;;;;;;;16.70;10.08;;;19.10;99.90;;;;;;1924177;74;21095;-77
2021/07/17 08:10:33;;;;;;;22.93;9.93;;;19.00;99.90;;;;;;1923943;74;21066;-73
2021/07/17 08:12:59;;;;;;;16.48;10.63;;;18.80;99.90;;;;;;1924130;73;21159;-75
2021/07/17 08:15:25;;;;;;;15.25;9.38;;;18.70;99.90;;;;;;1924053;74;21220;-75
2021/07/17 08:17:52;;;;;;;17.42;10.13;;;18.70;99.90;;;;;;1924114;74;21127;-75
2021/07/17 08:20:18;;;;;;;12.95;9.20;;;18.70;99.90;;;;;;1923954;73;21140;-76
2021/07/17 08:22:44;;;;;;;19.70;10.53;;;18.90;99.90;;;;;;1924026;74;21099;-76
2021/07/17 08:25:10;;;;;;;21.40;10.13;;;19.20;99.90;;;;;;1924082;74;21066;-76
2021/07/17 08:27:36;;;;;;;22.55;9.90;;;19.30;99.90;;;;;;1924101;74;21099;-75
2021/07/17 08:30:02;;;;;;;19.02;9.45;;;19.40;99.90;;;;;;1924080;73;21173;-75
2021/07/17 08:32:28;;;;;;;23.85;9.08;;;19.50;99.90;;;;;;1924102;74;21092;-75
2021/07/17 08:34:54;;;;;;;17.25;9.85;;;19.50;99.90;;;;;;1924164;74;21095;-74
2021/07/17 08:37:21;;;;;;;18.12;10.38;;;19.40;99.90;;;;;;1924026;74;21125;-74
2021/07/17 08:39:47;;;;;;;18.45;10.55;;;19.20;99.90;;;;;;1924019;74;21043;-80
2021/07/17 08:42:13;;;;;;;17.20;9.58;;;19.30;99.90;;;;;;1924115;74;21109;-75
2021/07/17 08:44:41;;;;;;;14.87;9.60;;;19.40;99.90;;;;;;1924097;74;21173;-76
2021/07/17 08:47:07;;;;;;;16.15;9.45;;;19.30;99.90;;;;;;1924144;74;21099;-75
2021/07/17 08:49:33;;;;;;;23.65;10.38;;;19.20;99.90;;;;;;1923990;74;21098;-74
2021/07/17 08:52:02;;;;;;;16.75;10.45;;;19.30;99.90;;;;;;1924181;74;21099;-75
2021/07/17 08:54:27;;;;;;;20.62;10.60;;;19.20;99.90;;;;;;1923852;74;21115;-74
2021/07/17 08:56:53;;;;;;;17.62;10.25;;;19.20;99.90;;;;;;1924196;74;21099;-74
2021/07/17 08:59:19;;;;;;;17.98;9.98;;;19.30;99.90;;;;;;1923956;73;21062;-75
2021/07/17 09:01:46;;;;;;;27.22;10.40;;;19.30;99.90;;;;;;1924012;74;21130;-76
2021/07/17 09:04:12;;;;;;;17.20;9.63;;;19.50;99.90;;;;;;1924052;74;21080;-74
2021/07/17 09:06:38;;;;;;;24.98;9.50;;;19.80;99.90;;;;;;1924065;74;21180;-74
2021/07/17 09:09:04;;;;;;;19.57;8.75;;;20.30;99.90;;;;;;1923980;74;21062;-74
2021/07/17 09:11:30;;;;;;;19.37;8.75;;;20.70;99.90;;;;;;1924071;73;21087;-76
2021/07/17 09:13:57;;;;;;;21.20;9.13;;;20.80;99.90;;;;;;1923950;74;21066;-76
2021/07/17 09:16:23;;;;;;;13.62;8.85;;;20.90;99.90;;;;;;1923911;74;21526;-76
2021/07/17 09:18:50;;;;;;;13.78;8.48;;;20.80;99.90;;;;;;1924211;74;21475;-77
2021/07/17 09:21:20;;;;;;;16.75;8.63;;;20.90;99.90;;;;;;1923910;74;21070;-79
2021/07/17 09:23:44;;;;;;;19.15;9.43;;;20.80;99.90;;;;;;1922248;74;21115;-76
2021/07/17 09:26:10;;;;;;;14.85;9.40;;;20.60;99.90;;;;;;1924032;74;21087;-78
2021/07/17 09:28:36;;;;;;;14.70;9.00;;;20.50;99.90;;;;;;1922710;74;21086;-77
2021/07/17 09:31:02;;;;;;;20.68;9.48;;;20.30;99.90;;;;;;1923939;74;21096;-75
2021/07/17 09:33:28;;;;;;;24.47;9.25;;;20.20;99.90;;;;;;1923876;74;21074;-76
2021/07/17 09:35:55;;;;;;;14.95;8.65;;;20.10;99.90;;;;;;1924027;74;21092;-75
2021/07/17 09:38:21;;;;;;;22.98;9.85;;;20.00;99.90;;;;;;1924081;74;21093;-76
2021/07/17 09:40:47;;;;;;;15.48;9.25;;;20.00;99.90;;;;;;1923887;74;21040;-74
2021/07/17 09:43:13;;;;;;;17.45;9.20;;;19.90;99.90;;;;;;1924152;74;21157;-78
2021/07/17 09:45:39;;;;;;;14.30;8.65;;;19.80;99.90;;;;;;1923926;74;21103;-78
2021/07/17 09:48:05;;;;;;;17.42;9.45;;;19.80;99.90;;;;;;1923985;73;21179;-77
2021/07/17 09:50:31;;;;;;;15.32;9.35;;;19.80;99.90;;;;;;1923968;74;21099;-77
2021/07/17 09:52:57;;;;;;;12.85;9.23;;;19.70;99.90;;;;;;1923873;74;21066;-77
2021/07/17 09:55:24;;;;;;;18.57;10.10;;;19.70;99.90;;;;;;1924051;74;21107;-76
2021/07/17 09:57:50;;;;;;;17.23;9.85;;;19.70;99.90;;;;;;1923897;74;21161;-76
2021/07/17 10:00:19;;;;;;;14.65;8.98;;;19.70;99.90;;;;;;1923938;74;21059;-75
2021/07/17 10:02:44;;;;;;;17.30;9.10;;;19.70;99.90;;;;;;1923848;74;21585;-74
2021/07/17 10:05:10;;;;;;;19.23;9.55;;;19.80;99.90;;;;;;1924102;74;21627;-74
2021/07/17 10:07:37;;;;;;;25.92;9.90;;;19.80;99.90;;;;;;1924225;74;21411;-74
2021/07/17 10:10:03;;;;;;;19.92;8.85;;;20.00;99.90;;;;;;1924043;74;21530;-75
2021/07/17 10:12:29;;;;;;;15.50;9.08;;;20.00;99.90;;;;;;1924036;74;21528;-74
2021/07/17 10:14:55;;;;;;;17.35;8.73;;;20.20;99.90;;;;;;1924009;74;21581;-74
2021/07/17 10:17:21;;;;;;;23.42;9.30;;;20.30;99.90;;;;;;1923883;74;21538;-74
2021/07/17 10:19:47;;;;;;;12.00;7.85;;;20.60;99.90;;;;;;1924137;74;21523;-74
2021/07/17 10:22:13;;;;;;;18.17;8.50;;;20.80;99.90;;;;;;1923982;74;21603;-74
2021/07/17 10:24:39;;;;;;;20.10;8.80;;;20.80;99.90;;;;;;1923923;74;21166;-75
2021/07/17 10:27:06;;;;;;;16.95;8.98;;;20.90;99.90;;;;;;1924024;73;21146;-75
2021/07/17 10:29:32;;;;;;;15.90;8.90;;;21.00;99.90;;;;;;1924038;74;21091;-74
2021/07/17 10:31:59;;;;;;;19.12;9.28;;;20.90;99.90;;;;;;1923998;74;21043;-75
2021/07/17 10:34:25;;;;;;;22.32;8.78;;;21.10;99.90;;;;;;1923991;74;21125;-75
2021/07/17 10:36:52;;;;;;;13.88;8.28;;;21.30;99.90;;;;;;1924006;74;21107;-75
2021/07/17 10:39:18;;;;;;;16.75;8.65;;;21.30;99.90;;;;;;1924007;73;21190;-75
2021/07/17 10:41:44;;;;;;;16.95;9.03;;;21.50;99.90;;;;;;1924045;74;21068;-74
2021/07/17 10:44:10;;;;;;;17.27;8.53;;;21.60;99.90;;;;;;1924020;74;21052;-75
2021/07/17 10:46:36;;;;;;;18.25;9.10;;;21.60;99.90;;;;;;1924069;74;21096;-76
2021/07/17 10:49:03;;;;;;;18.37;8.95;;;21.90;99.90;;;;;;1924096;74;21084;-74
2021/07/17 10:51:33;;;;;;;13.90;8.08;;;22.10;99.90;;;;;;1923938;74;21095;-76
2021/07/17 10:54:00;;;;;;;17.52;7.50;;;22.20;99.90;;;;;;1924067;73;21111;-76
2021/07/17 10:56:27;;;;;;;10.93;7.40;;;22.20;99.90;;;;;;1924035;74;21100;-77
2021/07/17 10:58:53;;;;;;;13.18;8.03;;;22.20;99.90;;;;;;1923977;74;21091;-76
2021/07/17 11:01:22;;;;;;;12.15;8.33;;;22.40;99.90;;;;;;1924166;73;21059;-76
2021/07/17 11:03:48;;;;;;;12.30;7.30;;;22.20;99.90;;;;;;1923997;74;21066;-76
2021/07/17 11:06:14;;;;;;;14.55;7.47;;;21.90;99.90;;;;;;1924090;74;21087;-76
2021/07/17 11:08:40;;;;;;;12.78;6.97;;;21.90;99.90;;;;;;1924047;74;21144;-76
2021/07/17 11:11:06;;;;;;;17.55;7.85;;;21.90;99.90;;;;;;1923810;74;21046;-76
2021/07/17 11:13:34;;;;;;;18.12;7.70;;;22.00;99.90;;;;;;1923765;74;21137;-76
2021/07/17 11:16:00;;;;;;;13.55;8.38;;;22.10;99.90;;;;;;1924149;74;21165;-76
2021/07/17 11:18:26;;;;;;;15.88;8.40;;;22.20;99.90;;;;;;1924055;74;21071;-76
2021/07/17 11:20:58;;;;;;;18.50;8.45;;;22.10;99.90;;;;;;1924156;73;21087;-76
2021/07/17 11:23:20;;;;;;;15.93;8.38;;;21.80;99.90;;;;;;1924041;74;21176;-76
2021/07/17 11:25:46;;;;;;;18.32;8.63;;;21.70;99.90;;;;;;1924134;74;21144;-76
2021/07/17 11:28:12;;;;;;;15.72;8.93;;;21.80;99.90;;;;;;1925185;74;21062;-77
2021/07/17 11:30:38;;;;;;;14.83;8.40;;;21.70;99.90;;;;;;1924197;74;21103;-76
2021/07/17 11:33:05;;;;;;;17.60;7.95;;;21.70;99.90;;;;;;1923988;74;21269;-76
2021/07/17 11:35:31;;;;;;;15.75;8.45;;;22.00;99.90;;;;;;1924022;74;21136;-76
2021/07/17 11:37:57;;;;;;;17.17;8.10;;;22.00;99.90;;;;;;1924008;74;21095;-76
2021/07/17 11:40:23;;;;;;;13.45;8.03;;;22.00;99.90;;;;;;1924043;74;21095;-76
2021/07/17 11:42:49;;;;;;;13.15;8.13;;;22.00;99.90;;;;;;1922471;74;21074;-76
2021/07/17 11:45:15;;;;;;;11.55;7.58;;;21.90;99.90;;;;;;1924047;74;21091;-75
2021/07/17 11:47:41;;;;;;;15.18;7.78;;;22.00;99.90;;;;;;1924074;74;21126;-76
2021/07/17 11:50:07;;;;;;;13.00;7.03;;;21.90;99.90;;;;;;1924119;74;21102;-76
2021/07/17 11:52:34;;;;;;;14.28;7.78;;;21.90;99.90;;;;;;1924054;74;21099;-76
2021/07/17 11:55:00;;;;;;;15.28;7.75;;;22.10;99.90;;;;;;1923493;74;21172;-76
2021/07/17 11:57:26;;;;;;;13.93;7.25;;;21.80;99.90;;;;;;1924366;73;21182;-74
2021/07/17 11:59:52;;;;;;;11.03;7.95;;;21.70;99.90;;;;;;1927129;73;21044;-76
2021/07/17 12:02:19;;;;;;;18.55;7.25;;;21.70;99.90;;;;;;1926040;73;21055;-75
2021/07/17 12:04:45;;;;;;;9.38;7.08;;;21.80;99.90;;;;;;1922983;74;21051;-75
2021/07/17 12:07:11;;;;;;;14.30;7.83;;;21.90;99.90;;;;;;1924030;73;21091;-76
2021/07/17 12:09:37;;;;;;;12.23;7.08;;;21.90;99.90;;;;;;1924181;74;21087;-75
2021/07/17 12:12:03;;;;;;;14.33;8.40;;;21.80;99.90;;;;;;1924110;74;21524;-76
2021/07/17 12:14:30;;;;;;;15.05;7.80;;;21.80;99.90;;;;;;1923885;74;21592;-75
2021/07/17 12:16:56;;;;;;;13.58;8.65;;;21.80;99.90;;;;;;1924119;74;21130;-75
2021/07/17 12:19:23;;;;;;;15.30;8.55;;;21.80;99.90;;;;;;1924159;74;21524;-74
2021/07/17 12:21:49;;;;;;;13.80;8.68;;;21.70;99.90;;;;;;1924042;73;21177;-75
2021/07/17 12:24:15;;;;;;;15.35;7.95;;;21.50;99.90;;;;;;1924181;74;21174;-75